Terminal Aerodrome Forecast
Issued by NWS

Home | Current Version | Previous Version | Text Only | Print | Product List | Glossary Off
Versions: 1 2 3 4 5 6 7 8 9 10 11 12 13 14 15 16 17 18 19 20 21 22 23 24 25

000
FTUS43 KFGF 181100
TAFBJI
TAF
KBJI 181126Z 1812/1912 14011KT P6SM OVC007
     FM181900 13007KT P6SM SCT010 SCT250
     FM182100 15012KT P6SM SCT250
     FM190400 15014G21KT P6SM BKN150=

USA.gov is the U.S. government's official web portal to all federal, state and local government web resources and services.